Dingwall, Canada
Current Conditions -  °F | °C
As of 2:00 PM on Saturday 25 Oct 2014 (Local Time) from CYQY Reporting Station
Drizzle Drizzle  
Wind Chill: 52°   Ceiling: 300
Heat Index: 52°   Visibility: 0.75mi
Dew Point: 52°   Wind: 13mph
Humidity: 100%   Direction: 40°NE
Pressure: 29.36"   Gusts: NA
Location:  46.9°N, 60.47°W
Report Text: CYQY 251700Z 04011KT 3/4SM R07/5500VP6000FT/U -DZ BR BKN003 OVC008 11/11 A2936 RMK ST6ST2 SLP945 DENSITY ALT 400FT
Loading
Personal Weather Stations






























Interactive Weather Map
Tropical Storm Tracking
New forecast layout! Learn more

10-Day Weather Forecast

Advertisements
Track Severe Weather on mobile